KFSM/FSM METAR and TAF weather

Enter ICAO airport designator
Station Type Date Time Source
KFSM METAR 2022/10/01 07:53 UTC NOAA

KFSM 010753Z AUTO 05005KT 10SM CLR 12/07 A3005 RMK AO2 SLP174 T01220067


Station Type Date Time Source
KFSM Decoded METAR 2022/10/01 07:53 UTC NOAA

FORT SMITH REGIONAL AIRPORT, AR, United States (KFSM) 35-20N 94-22W 140M
Oct 01, 2022 - 03:53 AM EDT / 2022.10.01 0753 UTC
Wind: from the NE (050 degrees) at 6 MPH (5 KT):0
Visibility: 10 mile(s):0
Sky conditions: clear
Temperature: 54.0 F (12.2 C)
Dew Point: 44.1 F (6.7 C)
Relative Humidity: 69%
Pressure (altimeter): 30.05 in. Hg (1017 hPa)
ob: KFSM 010753Z AUTO 05005KT 10SM CLR 12/07 A3005 RMK AO2 SLP174 T01220067
cycle: 8

Station Type Date Time Source
KFSM TAF 2022/10/01 06:22 UTC NOAA

TAF KFSM 010520Z 0106/0206 05003KT P6SM SKC
FM011500 07004KT P6SM SKC

Example: see airport list